createdAt,value
2019-05-10T00:02:38.987Z,1.50
2019-05-10T00:06:02.094Z,1.97
2019-05-10T00:09:06.688Z,1.30
2019-05-10T00:12:26.104Z,1.60
2019-05-10T00:15:32.826Z,1.33
2019-05-10T00:18:37.787Z,1.40
2019-05-10T00:21:43.177Z,1.10
2019-05-10T00:25:01.986Z,1.10
2019-05-10T00:27:55.928Z,1.20
2019-05-10T00:31:00.750Z,1.20
2019-05-10T00:34:05.864Z,1.20
2019-05-10T00:37:10.890Z,1.20
2019-05-10T00:40:15.725Z,1.27
2019-05-10T00:43:20.746Z,1.10
2019-05-10T00:46:25.883Z,1.40
2019-05-10T00:49:31.700Z,1.30
2019-05-10T00:52:36.492Z,1.40
2019-05-10T00:55:41.413Z,1.20
2019-05-10T00:58:46.562Z,1.10
2019-05-10T01:01:51.319Z,1.20
2019-05-10T01:04:56.462Z,1.40
2019-05-10T01:08:01.720Z,1.33
2019-05-10T01:11:06.977Z,1.27
2019-05-10T01:14:11.741Z,1.30
2019-05-10T01:17:16.524Z,1.50
2019-05-10T01:20:21.529Z,1.43
2019-05-10T01:23:26.608Z,1.10
2019-05-10T01:26:31.882Z,1.60
2019-05-10T01:29:36.660Z,1.50
2019-05-10T01:32:41.661Z,1.40
2019-05-10T01:35:46.766Z,1.37
2019-05-10T01:38:51.607Z,1.23
2019-05-10T01:41:56.561Z,1.20
2019-05-10T01:45:01.424Z,1.33
2019-05-10T01:48:06.234Z,1.40
2019-05-10T01:51:11.023Z,1.40
2019-05-10T01:54:15.836Z,1.27
2019-05-10T01:57:20.689Z,1.27
2019-05-10T02:00:25.649Z,1.50
2019-05-10T02:03:30.517Z,1.20
2019-05-10T02:06:36.660Z,1.30
2019-05-10T02:09:41.763Z,1.43
2019-05-10T02:12:46.958Z,1.30
2019-05-10T02:15:52.095Z,1.20
2019-05-10T02:18:57.492Z,1.40
2019-05-10T02:22:02.599Z,1.30
2019-05-10T02:25:07.645Z,1.17
2019-05-10T02:28:12.536Z,1.30
2019-05-10T02:31:21.477Z,1.60
2019-05-10T02:34:23.972Z,1.33
2019-05-10T02:37:29.048Z,1.20
2019-05-10T02:40:34.294Z,1.93
2019-05-10T02:43:42.273Z,1.37
2019-05-10T02:46:47.035Z,1.37
2019-05-10T02:49:52.115Z,1.60
2019-05-10T02:52:57.453Z,1.40
2019-05-10T02:56:04.071Z,1.30
2019-05-10T02:59:12.627Z,1.60
2019-05-10T03:02:18.606Z,1.30
2019-05-10T03:05:27.164Z,1.20
2019-05-10T03:08:47.440Z,1.40
2019-05-10T03:11:53.383Z,1.20
2019-05-10T03:14:59.033Z,1.50
2019-05-10T03:18:04.470Z,1.50
2019-05-10T03:21:12.072Z,1.30
2019-05-10T03:24:17.177Z,1.63
2019-05-10T03:27:22.635Z,1.20
2019-05-10T03:30:27.710Z,1.40
2019-05-10T03:33:32.528Z,1.40
2019-05-10T03:36:37.756Z,1.20
2019-05-10T03:39:43.371Z,1.53
2019-05-10T03:42:49.073Z,1.40
2019-05-10T03:45:54.227Z,1.50
2019-05-10T03:48:59.045Z,1.40
2019-05-10T03:52:04.999Z,1.60
2019-05-10T03:55:09.995Z,1.50
2019-05-10T03:58:14.849Z,1.73
2019-05-10T04:01:19.697Z,1.50
2019-05-10T04:04:27.916Z,1.80
2019-05-10T04:07:32.722Z,1.50
2019-05-10T04:10:39.246Z,1.83
2019-05-10T04:13:44.278Z,1.50
2019-05-10T04:16:49.044Z,1.87
2019-05-10T04:19:54.244Z,2.13
2019-05-10T04:22:59.773Z,1.80
2019-05-10T04:26:05.513Z,1.90
2019-05-10T04:29:11.592Z,1.77
2019-05-10T04:32:16.458Z,1.80
2019-05-10T04:35:21.680Z,2.07
2019-05-10T04:38:26.461Z,1.80
2019-05-10T04:41:31.582Z,1.90
2019-05-10T04:44:36.488Z,1.73
2019-05-10T04:47:41.242Z,1.73
2019-05-10T04:50:49.068Z,1.70
2019-05-10T04:53:53.793Z,2.07
2019-05-10T04:57:00.207Z,1.83
2019-05-10T05:00:07.398Z,2.17
2019-05-10T05:03:12.197Z,1.87
2019-05-10T05:06:17.038Z,2.07
2019-05-10T05:09:22.389Z,2.13
2019-05-10T05:12:27.229Z,2.10
2019-05-10T05:15:32.028Z,1.90
2019-05-10T05:18:36.866Z,2.00
2019-05-10T05:21:41.684Z,1.90
2019-05-10T05:24:46.456Z,1.97
2019-05-10T05:28:06.810Z,2.30
2019-05-10T05:30:58.037Z,1.90
2019-05-10T05:34:04.941Z,2.60
2019-05-10T05:37:09.791Z,2.00
2019-05-10T05:40:14.819Z,1.83
2019-05-10T05:43:19.734Z,2.00
2019-05-10T05:46:25.270Z,2.33
2019-05-10T05:49:30.390Z,2.03
2019-05-10T05:52:35.176Z,1.87
2019-05-10T05:55:41.547Z,2.50
2019-05-10T05:58:47.530Z,1.87
2019-05-10T06:01:52.334Z,1.90
2019-05-10T06:04:57.241Z,2.03
2019-05-10T06:08:02.970Z,1.87
2019-05-10T06:11:09.228Z,2.03
2019-05-10T06:14:15.056Z,1.93
2019-05-10T06:17:23.695Z,2.00
2019-05-10T06:20:26.981Z,2.10
2019-05-10T06:23:35.340Z,1.97
2019-05-10T06:26:38.910Z,2.00
2019-05-10T06:29:44.027Z,2.17
2019-05-10T06:32:53.460Z,1.93
2019-05-10T06:35:55.689Z,2.60
2019-05-10T06:39:01.150Z,2.10
2019-05-10T06:42:06.168Z,2.33
2019-05-10T06:45:14.694Z,2.53
2019-05-10T06:48:26.017Z,2.30
2019-05-10T06:51:24.940Z,2.40
2019-05-10T06:54:29.739Z,2.30
2019-05-10T06:57:34.716Z,2.40
2019-05-10T07:00:44.633Z,2.83
2019-05-10T07:03:46.373Z,2.30
2019-05-10T07:06:52.736Z,3.30
2019-05-10T07:10:10.088Z,2.00
2019-05-10T07:13:06.714Z,2.40
2019-05-10T07:16:14.957Z,2.10
2019-05-10T07:19:18.307Z,2.20
2019-05-10T07:22:27.262Z,2.40
2019-05-10T07:25:30.981Z,2.30
2019-05-10T07:28:36.827Z,2.20
2019-05-10T07:31:41.783Z,1.90
2019-05-10T07:34:48.894Z,2.10
2019-05-10T07:37:53.793Z,2.17
2019-05-10T07:40:58.653Z,2.00
2019-05-10T07:44:07.806Z,2.30
2019-05-10T07:47:09.962Z,2.10
2019-05-10T07:50:15.020Z,2.13
2019-05-10T07:53:22.901Z,2.40
2019-05-10T07:56:26.394Z,2.23
2019-05-10T07:59:41.982Z,2.60
2019-05-10T08:02:38.127Z,1.90
2019-05-10T08:05:46.436Z,2.00
2019-05-10T08:08:49.907Z,1.90
2019-05-10T08:12:03.218Z,2.33
2019-05-10T08:15:01.853Z,2.07
2019-05-10T08:18:09.635Z,2.10
2019-05-10T08:21:21.687Z,2.30
2019-05-10T08:24:22.165Z,2.40
2019-05-10T08:27:27.277Z,2.40
2019-05-10T08:30:42.536Z,2.10
2019-05-10T08:33:53.686Z,2.17
2019-05-10T08:36:51.977Z,2.00
2019-05-10T08:39:57.890Z,2.20
2019-05-10T08:43:07.179Z,2.37
2019-05-10T08:46:11.783Z,2.00
2019-05-10T08:49:22.018Z,2.30
2019-05-10T08:52:26.848Z,1.87
2019-05-10T08:55:28.963Z,2.10
2019-05-10T08:58:37.176Z,2.17
2019-05-10T09:01:46.549Z,1.90
2019-05-10T09:04:50.167Z,2.03
2019-05-10T09:07:56.810Z,1.80
2019-05-10T09:11:06.476Z,1.83
2019-05-10T09:14:12.361Z,1.80
2019-05-10T09:17:26.700Z,1.70
2019-05-10T09:20:26.356Z,1.73
2019-05-10T09:23:29.124Z,1.63
2019-05-10T09:26:34.304Z,1.50
2019-05-10T09:29:39.366Z,1.53
2019-05-10T09:32:44.276Z,1.80
2019-05-10T09:35:52.357Z,1.70
2019-05-10T09:38:56.474Z,1.63
2019-05-10T09:42:07.653Z,1.70
2019-05-10T09:45:09.771Z,1.67
2019-05-10T09:48:15.075Z,1.80
2019-05-10T09:51:28.004Z,1.43
2019-05-10T09:54:29.548Z,1.50
2019-05-10T09:57:33.469Z,1.80
2019-05-10T10:00:38.361Z,1.83
2019-05-10T10:03:44.933Z,1.90
2019-05-10T10:06:52.667Z,1.80
2019-05-10T10:09:57.061Z,1.77
2019-05-10T10:13:08.482Z,2.00
2019-05-10T10:16:12.629Z,2.03
2019-05-10T10:19:17.306Z,1.80
2019-05-10T10:22:21.580Z,1.90
2019-05-10T10:25:30.085Z,2.00
2019-05-10T10:28:37.320Z,2.00
2019-05-10T10:31:51.528Z,2.00
2019-05-10T10:34:52.521Z,1.90
2019-05-10T10:37:57.466Z,1.77
2019-05-10T10:41:01.505Z,1.70
2019-05-10T10:44:08.409Z,1.80
2019-05-10T10:47:13.179Z,1.80
2019-05-10T10:50:18.772Z,2.13
2019-05-10T10:53:23.560Z,2.63
2019-05-10T10:56:28.752Z,2.13
2019-05-10T10:59:33.793Z,2.10
2019-05-10T11:02:41.490Z,2.07
2019-05-10T11:05:45.582Z,2.50
2019-05-10T11:08:51.853Z,2.30
2019-05-10T11:11:58.036Z,2.77
2019-05-10T11:15:02.996Z,2.70
2019-05-10T11:18:07.950Z,2.67
2019-05-10T11:21:13.013Z,2.50
2019-05-10T11:24:20.137Z,2.20
2019-05-10T11:27:24.313Z,2.50
2019-05-10T11:30:29.353Z,1.90
2019-05-10T11:33:34.897Z,3.00
2019-05-10T11:36:40.450Z,2.60
2019-05-10T11:39:47.140Z,2.90
2019-05-10T11:42:51.987Z,2.70
2019-05-10T11:45:56.733Z,2.33
2019-05-10T11:49:01.897Z,1.50
2019-05-10T11:52:10.079Z,1.37
2019-05-10T11:55:13.846Z,1.17
2019-05-10T11:58:18.946Z,1.30
2019-05-10T12:01:23.753Z,1.40
2019-05-10T12:04:38.233Z,1.43
2019-05-10T12:07:45.405Z,1.70
2019-05-10T12:10:52.414Z,1.67
2019-05-10T12:13:56.879Z,1.47
2019-05-10T12:16:55.869Z,1.60
2019-05-10T12:20:02.495Z,1.57
2019-05-10T12:23:13.218Z,1.53
2019-05-10T12:29:21.322Z,1.50
2019-05-10T12:32:27.069Z,1.50
2019-05-10T12:35:39.894Z,1.70
2019-05-10T12:38:40.955Z,1.50
2019-05-10T12:41:49.800Z,1.80
2019-05-10T12:44:55.991Z,1.90
2019-05-10T12:48:01.301Z,1.87
2019-05-10T12:51:11.456Z,1.93
2019-05-10T12:54:13.327Z,1.60
2019-05-10T12:57:18.437Z,1.40
2019-05-10T13:00:23.469Z,1.63
2019-05-10T13:03:31.683Z,2.33
2019-05-10T13:06:36.057Z,1.87
2019-05-10T13:09:41.790Z,2.00
2019-05-10T13:12:47.390Z,2.03
2019-05-10T13:15:52.444Z,2.53
2019-05-10T13:18:57.218Z,1.57
2019-05-10T13:22:01.954Z,1.50
2019-05-10T13:25:07.106Z,1.60
2019-05-10T13:28:12.247Z,1.50
2019-05-10T13:31:17.470Z,1.90
2019-05-10T13:34:24.268Z,1.90
2019-05-10T13:37:28.696Z,1.83
2019-05-10T13:40:39.194Z,1.80
2019-05-10T13:43:40.964Z,1.67
2019-05-10T13:46:45.735Z,1.90
2019-05-10T13:49:50.988Z,1.80
2019-05-10T13:52:56.786Z,1.90
2019-05-10T13:56:01.817Z,1.70
2019-05-10T13:59:15.331Z,1.80
2019-05-10T14:02:13.397Z,1.77
2019-05-10T14:05:19.988Z,1.60
2019-05-10T14:08:25.183Z,1.40
2019-05-10T14:11:34.118Z,1.67
2019-05-10T14:14:36.394Z,2.00
2019-05-10T14:17:41.156Z,1.57
2019-05-10T14:20:45.979Z,1.80
2019-05-10T14:23:51.408Z,1.40
2019-05-10T14:26:59.185Z,1.40
2019-05-10T14:30:10.801Z,1.40
2019-05-10T14:33:14.792Z,1.40
2019-05-10T14:36:17.139Z,1.73
2019-05-10T14:39:22.250Z,1.40
2019-05-10T14:42:31.382Z,1.30
2019-05-10T14:45:34.512Z,1.50
2019-05-10T14:48:39.554Z,1.37
2019-05-10T14:51:58.587Z,1.37
2019-05-10T14:54:55.394Z,1.57
2019-05-10T14:57:57.706Z,1.40
2019-05-10T15:01:02.458Z,1.33
2019-05-10T15:04:07.224Z,1.20
2019-05-10T15:07:14.375Z,1.57
2019-05-10T15:10:18.579Z,1.30
2019-05-10T15:13:26.036Z,1.23
2019-05-10T15:16:30.847Z,1.20
2019-05-10T15:19:36.330Z,1.40
2019-05-10T15:22:41.509Z,1.37
2019-05-10T15:25:56.389Z,1.30
2019-05-10T15:28:52.807Z,1.30
2019-05-10T15:31:57.664Z,1.37
2019-05-10T15:35:06.884Z,1.23
2019-05-10T15:38:10.832Z,1.37
2019-05-10T15:41:16.889Z,1.50
2019-05-10T15:44:30.237Z,1.30
2019-05-10T15:47:28.982Z,1.50
2019-05-10T15:50:38.621Z,1.40
2019-05-10T15:53:40.691Z,1.30
2019-05-10T15:56:45.480Z,1.30
2019-05-10T15:59:55.860Z,1.10
2019-05-10T16:02:56.913Z,1.30
2019-05-10T16:06:02.143Z,1.47
2019-05-10T16:09:16.872Z,1.30
2019-05-10T16:12:14.603Z,1.30
2019-05-10T16:15:21.270Z,1.43
2019-05-10T16:18:26.145Z,1.20
2019-05-10T16:21:31.173Z,1.07
2019-05-10T16:24:37.132Z,1.03
2019-05-10T16:27:45.046Z,1.37
2019-05-10T16:30:49.165Z,1.33
2019-05-10T16:33:55.736Z,1.50
2019-05-10T16:37:01.543Z,2.03
2019-05-10T16:40:06.898Z,1.77
2019-05-10T16:43:13.408Z,2.47
2019-05-10T16:46:18.633Z,1.40
2019-05-10T16:49:23.660Z,1.20
2019-05-10T16:52:28.756Z,1.37
2019-05-10T16:55:35.557Z,1.47
2019-05-10T16:58:40.565Z,1.40
2019-05-10T17:01:45.693Z,1.30
2019-05-10T17:04:50.916Z,1.57
2019-05-10T17:07:58.779Z,1.20
2019-05-10T17:11:09.395Z,1.30
2019-05-10T17:14:12.692Z,1.57
2019-05-10T17:17:15.868Z,1.27
2019-05-10T17:20:20.885Z,1.10
2019-05-10T17:23:26.162Z,1.07
2019-05-10T17:26:32.948Z,1.00
2019-05-10T17:29:38.049Z,1.07
2019-05-10T17:32:42.910Z,1.20
2019-05-10T17:35:47.803Z,0.80
2019-05-10T17:38:54.355Z,1.00
2019-05-10T17:42:03.067Z,1.00
2019-05-10T17:45:07.698Z,1.00
2019-05-10T17:48:12.563Z,1.00
2019-05-10T17:51:17.389Z,1.00
2019-05-10T17:54:22.208Z,1.00
2019-05-10T17:57:28.589Z,1.50
2019-05-10T18:00:33.881Z,1.30
2019-05-10T18:03:38.672Z,1.53
2019-05-10T18:06:43.458Z,2.50
2019-05-10T18:09:48.647Z,1.37
2019-05-10T18:12:57.297Z,1.10
2019-05-10T18:16:04.479Z,1.20
2019-05-10T18:19:07.003Z,1.27
2019-05-10T18:22:12.183Z,1.13
2019-05-10T18:25:20.615Z,1.37
2019-05-10T18:28:23.736Z,1.03
2019-05-10T18:31:28.540Z,1.23
2019-05-10T18:34:35.400Z,1.23
2019-05-10T18:37:39.881Z,1.30
2019-05-10T18:40:44.955Z,1.10
2019-05-10T18:43:50.073Z,1.07
2019-05-10T18:46:55.110Z,1.30
2019-05-10T18:50:00.192Z,1.40
2019-05-10T18:53:05.001Z,1.60
2019-05-10T18:56:10.392Z,1.23
2019-05-10T18:59:15.492Z,1.40
2019-05-10T19:02:20.512Z,1.40
2019-05-10T19:05:31.457Z,1.80
2019-05-10T19:08:32.252Z,1.70
2019-05-10T19:11:39.136Z,1.70
2019-05-10T19:14:43.862Z,1.80
2019-05-10T19:17:49.673Z,1.80
2019-05-10T19:20:55.284Z,1.77
2019-05-10T19:24:00.092Z,2.30
2019-05-10T19:27:07.205Z,1.90
2019-05-10T19:30:13.132Z,2.10
2019-05-10T19:33:18.315Z,2.10
2019-05-10T19:36:23.244Z,2.00
2019-05-10T19:39:28.301Z,1.77
2019-05-10T19:42:37.057Z,2.47
2019-05-10T19:45:39.799Z,2.67
2019-05-10T19:48:44.658Z,2.97
2019-05-10T19:51:50.438Z,4.70
2019-05-10T19:54:55.341Z,6.37
2019-05-10T19:58:00.078Z,7.00
2019-05-10T20:01:04.929Z,7.10
2019-05-10T20:04:09.682Z,5.53
2019-05-10T20:07:14.787Z,5.30
2019-05-10T20:10:19.694Z,5.83
2019-05-10T20:13:26.154Z,5.37
2019-05-10T20:16:31.251Z,5.10
2019-05-10T20:19:36.296Z,4.90
2019-05-10T20:22:41.124Z,4.60
2019-05-10T20:25:46.323Z,4.40
2019-05-10T20:28:51.092Z,3.73
2019-05-10T20:31:56.878Z,4.23
2019-05-10T20:35:02.778Z,4.27
2019-05-10T20:38:07.788Z,4.30
2019-05-10T20:41:12.553Z,5.10
2019-05-10T20:44:18.317Z,5.40
2019-05-10T20:47:24.322Z,4.60
2019-05-10T20:50:29.267Z,3.77
2019-05-10T20:53:34.024Z,3.70
2019-05-10T20:56:38.800Z,3.63
2019-05-10T20:59:43.983Z,3.20
2019-05-10T21:02:48.752Z,3.47
2019-05-10T21:05:53.569Z,3.47
2019-05-10T21:08:58.430Z,3.60
2019-05-10T21:12:04.538Z,3.40
2019-05-10T21:15:09.751Z,3.53
2019-05-10T21:18:14.511Z,3.80
2019-05-10T21:21:19.527Z,3.50
2019-05-10T21:24:24.395Z,3.57
2019-05-10T21:27:29.558Z,3.57
2019-05-10T21:30:34.341Z,3.93
2019-05-10T21:33:39.120Z,3.87
2019-05-10T21:36:44.150Z,3.50
2019-05-10T21:39:48.991Z,2.80
2019-05-10T21:42:53.717Z,3.23
2019-05-10T21:45:58.524Z,2.97
2019-05-10T21:49:03.285Z,3.87
2019-05-10T21:52:08.169Z,3.73
2019-05-10T21:55:13.116Z,3.30
2019-05-10T21:58:18.133Z,2.80
2019-05-10T22:01:23.553Z,2.70
2019-05-10T22:04:28.354Z,2.73
2019-05-10T22:07:33.556Z,2.97
2019-05-10T22:10:38.424Z,2.63
2019-05-10T22:13:43.973Z,3.67
2019-05-10T22:16:48.731Z,2.73
2019-05-10T22:19:53.719Z,2.37
2019-05-10T22:22:58.812Z,2.80
2019-05-10T22:26:03.936Z,2.53
2019-05-10T22:29:08.998Z,3.10
2019-05-10T22:32:13.729Z,3.10
2019-05-10T22:35:18.500Z,2.97
2019-05-10T22:38:23.572Z,3.00
2019-05-10T22:41:28.997Z,2.43
2019-05-10T22:44:33.744Z,2.77
2019-05-10T22:47:38.510Z,2.23
2019-05-10T22:50:43.279Z,2.70
2019-05-10T22:53:59.011Z,2.27
2019-05-10T22:56:55.140Z,2.50
2019-05-10T23:00:00.218Z,2.30
2019-05-10T23:03:05.526Z,2.60
2019-05-10T23:06:10.319Z,3.17
2019-05-10T23:09:24.011Z,3.50
2019-05-10T23:12:21.837Z,3.70
2019-05-10T23:15:26.689Z,3.37
2019-05-10T23:18:31.452Z,3.30
2019-05-10T23:21:36.651Z,3.20
2019-05-10T23:24:41.742Z,3.73
2019-05-10T23:27:46.485Z,3.60
2019-05-10T23:30:51.456Z,3.10
2019-05-10T23:33:56.592Z,3.80
2019-05-10T23:37:01.479Z,3.27
2019-05-10T23:40:06.342Z,3.53
2019-05-10T23:43:11.175Z,3.50
2019-05-10T23:46:16.239Z,3.37
2019-05-10T23:49:21.043Z,3.43
2019-05-10T23:52:26.369Z,3.30
2019-05-10T23:55:31.462Z,3.33
2019-05-10T23:58:36.219Z,3.63
